createdAt,value
2022-11-25T00:01:26.147Z,63.44
2022-11-25T00:03:56.460Z,63.53
2022-11-25T00:06:33.445Z,63.27
2022-11-25T00:09:06.612Z,63.41
2022-11-25T00:11:39.236Z,63.34
2022-11-25T00:14:07.950Z,63.33
2022-11-25T00:16:34.791Z,63.51
2022-11-25T00:19:01.683Z,63.26
2022-11-25T00:21:32.702Z,63.53
2022-11-25T00:24:03.372Z,63.59
2022-11-25T00:26:32.688Z,63.51
2022-11-25T00:29:04.158Z,63.58
2022-11-25T00:31:34.761Z,63.60
2022-11-25T00:34:01.827Z,63.51
2022-11-25T00:36:36.301Z,63.45
2022-11-25T00:39:11.271Z,63.29
2022-11-25T00:41:57.128Z,63.52
2022-11-25T00:44:36.983Z,63.88
2022-11-25T00:47:16.528Z,63.83
2022-11-25T00:49:49.472Z,63.96
2022-11-25T00:52:22.669Z,64.18
2022-11-25T00:54:50.705Z,64.43
2022-11-25T00:57:20.551Z,64.41
2022-11-25T00:59:47.933Z,64.84
2022-11-25T01:02:18.782Z,64.76
2022-11-25T01:04:46.404Z,64.97
2022-11-25T01:07:13.524Z,64.98
2022-11-25T01:09:40.386Z,65.39
2022-11-25T01:12:07.226Z,65.78
2022-11-25T01:14:34.892Z,65.54
2022-11-25T01:17:02.003Z,65.67
2022-11-25T01:19:28.900Z,65.81
2022-11-25T01:21:55.741Z,66.28
2022-11-25T01:24:24.034Z,66.31
2022-11-25T01:26:51.107Z,66.18
2022-11-25T01:29:19.391Z,66.22
2022-11-25T01:31:47.268Z,66.19
2022-11-25T01:34:21.999Z,66.22
2022-11-25T01:36:49.113Z,66.37
2022-11-25T01:39:30.449Z,66.20
2022-11-25T01:41:59.703Z,66.31
2022-11-25T01:44:32.720Z,66.36
2022-11-25T01:47:16.945Z,66.54
2022-11-25T01:49:49.760Z,66.64
2022-11-25T01:52:29.475Z,66.59
2022-11-25T01:55:17.330Z,66.44
2022-11-25T01:57:49.015Z,66.50
2022-11-25T02:00:16.852Z,66.39
2022-11-25T02:02:44.291Z,66.44
2022-11-25T02:05:16.749Z,66.65
2022-11-25T02:07:47.374Z,66.52
2022-11-25T02:10:24.269Z,66.42
2022-11-25T02:12:52.230Z,66.75
2022-11-25T02:15:19.774Z,66.46
2022-11-25T02:17:46.956Z,66.50
2022-11-25T02:20:17.569Z,66.39
2022-11-25T02:23:15.983Z,66.52
2022-11-25T02:25:45.111Z,66.48
2022-11-25T02:28:23.590Z,66.40
2022-11-25T02:30:51.645Z,66.22
2022-11-25T02:33:19.690Z,66.31
2022-11-25T02:35:59.493Z,66.36
2022-11-25T02:38:38.531Z,66.17
2022-11-25T02:41:33.701Z,66.16
2022-11-25T02:44:00.864Z,65.89
2022-11-25T02:46:28.670Z,66.26
2022-11-25T02:49:13.229Z,66.13
2022-11-25T02:51:43.710Z,66.21
2022-11-25T02:54:11.889Z,66.49
2022-11-25T02:56:40.055Z,66.43
2022-11-25T02:59:07.630Z,66.24
2022-11-25T03:01:35.463Z,66.45
2022-11-25T03:04:02.650Z,66.57
2022-11-25T03:06:30.391Z,66.66
2022-11-25T03:08:58.145Z,66.82
2022-11-25T03:11:44.028Z,66.62
2022-11-25T03:14:10.962Z,66.51
2022-11-25T03:16:37.875Z,66.74
2022-11-25T03:19:05.506Z,66.56
2022-11-25T03:21:32.297Z,67.00
2022-11-25T03:23:59.045Z,66.83
2022-11-25T03:26:26.162Z,66.78
2022-11-25T03:28:53.178Z,67.07
2022-11-25T03:31:20.077Z,67.24
2022-11-25T03:33:46.862Z,67.12
2022-11-25T03:36:13.646Z,66.77
2022-11-25T03:38:40.523Z,66.71
2022-11-25T03:41:07.277Z,66.94
2022-11-25T03:43:35.468Z,66.62
2022-11-25T03:46:02.334Z,66.76
2022-11-25T03:48:29.207Z,66.84
2022-11-25T03:50:56.418Z,66.74
2022-11-25T03:53:23.177Z,66.55
2022-11-25T03:55:50.123Z,66.75
2022-11-25T03:58:16.961Z,66.72
2022-11-25T04:00:43.891Z,66.46
2022-11-25T04:03:10.787Z,66.43
2022-11-25T04:05:37.633Z,66.43
2022-11-25T04:08:04.624Z,66.28
2022-11-25T04:10:31.425Z,66.72
2022-11-25T04:12:58.208Z,66.74
2022-11-25T04:15:24.963Z,66.82
2022-11-25T04:17:51.754Z,66.65
2022-11-25T04:20:18.650Z,67.14
2022-11-25T04:22:45.519Z,66.65
2022-11-25T04:25:12.340Z,66.68
2022-11-25T04:27:39.181Z,66.79
2022-11-25T04:30:07.891Z,67.06
2022-11-25T04:32:37.157Z,67.17
2022-11-25T04:35:04.576Z,67.32
2022-11-25T04:37:31.347Z,67.28
2022-11-25T04:39:58.112Z,67.38
2022-11-25T04:42:34.546Z,67.04
2022-11-25T04:45:22.421Z,67.22
2022-11-25T04:47:50.288Z,67.50
2022-11-25T04:50:20.848Z,67.81
2022-11-25T04:52:47.612Z,67.76
2022-11-25T04:55:14.381Z,67.49
2022-11-25T04:57:41.308Z,67.51
2022-11-25T05:00:09.480Z,67.73
2022-11-25T05:02:36.370Z,67.68
2022-11-25T05:05:03.379Z,67.77
2022-11-25T05:07:30.433Z,68.13
2022-11-25T05:09:57.611Z,67.84
2022-11-25T05:12:35.158Z,67.80
2022-11-25T05:15:02.076Z,67.61
2022-11-25T05:17:31.336Z,68.01
2022-11-25T05:19:58.516Z,67.90
2022-11-25T05:22:29.713Z,67.90
2022-11-25T05:24:56.662Z,68.05
2022-11-25T05:27:24.700Z,68.12
2022-11-25T05:29:55.697Z,68.11
2022-11-25T05:32:23.672Z,68.23
2022-11-25T05:34:50.476Z,68.33
2022-11-25T05:37:21.281Z,68.13
2022-11-25T05:39:51.365Z,68.17
2022-11-25T05:42:18.436Z,68.26
2022-11-25T05:44:45.175Z,68.23
2022-11-25T05:47:11.914Z,68.39
2022-11-25T05:49:38.682Z,68.55
2022-11-25T05:52:05.565Z,68.43
2022-11-25T05:54:32.303Z,68.47
2022-11-25T05:56:59.101Z,68.30
2022-11-25T05:59:25.887Z,68.26
2022-11-25T06:01:55.905Z,68.45
2022-11-25T06:04:22.743Z,68.32
2022-11-25T06:06:49.545Z,68.31
2022-11-25T06:09:16.305Z,68.24
2022-11-25T06:11:43.067Z,68.50
2022-11-25T06:14:10.085Z,68.50
2022-11-25T06:16:36.907Z,68.30
2022-11-25T06:19:06.552Z,68.29
2022-11-25T06:21:33.406Z,68.20
2022-11-25T06:24:00.241Z,68.23
2022-11-25T06:26:27.021Z,68.27
2022-11-25T06:28:55.501Z,68.41
2022-11-25T06:31:25.310Z,68.42
2022-11-25T06:33:53.442Z,68.32
2022-11-25T06:36:21.856Z,68.47
2022-11-25T06:38:54.183Z,68.56
2022-11-25T06:41:23.901Z,68.66
2022-11-25T06:43:50.721Z,68.47
2022-11-25T06:46:24.407Z,68.71
2022-11-25T06:48:53.364Z,68.66
2022-11-25T06:51:20.406Z,68.67
2022-11-25T06:53:47.258Z,68.83
2022-11-25T06:56:23.910Z,68.70
2022-11-25T06:58:51.626Z,68.88
2022-11-25T07:01:25.275Z,68.70
2022-11-25T07:03:55.353Z,68.65
2022-11-25T07:06:22.749Z,69.03
2022-11-25T07:08:50.095Z,68.55
2022-11-25T07:11:25.945Z,68.60
2022-11-25T07:13:55.734Z,68.61
2022-11-25T07:16:22.642Z,68.52
2022-11-25T07:18:50.146Z,68.80
2022-11-25T07:21:20.357Z,68.66
2022-11-25T07:23:47.581Z,68.68
2022-11-25T07:26:21.702Z,68.56
2022-11-25T07:28:49.524Z,69.06
2022-11-25T07:31:33.753Z,68.70
2022-11-25T07:34:03.476Z,68.93
2022-11-25T07:36:31.763Z,69.36
2022-11-25T07:39:01.816Z,68.90
2022-11-25T07:41:29.799Z,69.02
2022-11-25T07:44:00.323Z,69.16
2022-11-25T07:46:34.012Z,69.25
2022-11-25T07:49:05.538Z,69.41
2022-11-25T07:51:42.059Z,69.51
2022-11-25T07:54:12.376Z,69.42
2022-11-25T07:56:41.851Z,69.50
2022-11-25T07:59:16.244Z,69.38
2022-11-25T08:01:44.033Z,69.47
2022-11-25T08:04:19.486Z,69.47
2022-11-25T08:06:49.486Z,69.52
2022-11-25T08:09:19.958Z,69.50
2022-11-25T08:11:47.738Z,69.47
2022-11-25T08:14:15.715Z,69.38
2022-11-25T08:16:43.231Z,69.21
2022-11-25T08:19:15.291Z,69.56
2022-11-25T08:21:42.426Z,69.50
2022-11-25T08:24:16.498Z,69.60
2022-11-25T08:26:43.327Z,69.63
2022-11-25T08:29:15.387Z,69.72
2022-11-25T08:31:43.063Z,69.55
2022-11-25T08:34:19.009Z,69.65
2022-11-25T08:36:48.636Z,69.63
2022-11-25T08:39:44.406Z,69.52
2022-11-25T08:42:04.731Z,69.34
2022-11-25T08:44:31.529Z,69.38
2022-11-25T08:46:58.441Z,69.40
2022-11-25T08:49:26.865Z,69.30
2022-11-25T08:51:53.652Z,69.21
2022-11-25T08:54:20.477Z,69.14
2022-11-25T08:56:47.280Z,69.58
2022-11-25T08:59:14.067Z,69.68
2022-11-25T09:01:40.878Z,69.41
2022-11-25T09:04:07.765Z,69.35
2022-11-25T09:06:34.521Z,69.66
2022-11-25T09:09:01.770Z,69.42
2022-11-25T09:11:29.222Z,69.72
2022-11-25T09:13:56.168Z,69.49
2022-11-25T09:16:24.358Z,69.76
2022-11-25T09:18:55.846Z,69.61
2022-11-25T09:21:25.328Z,69.32
2022-11-25T09:23:53.967Z,69.82
2022-11-25T09:26:30.305Z,69.75
2022-11-25T09:28:58.188Z,69.62
2022-11-25T09:31:25.131Z,69.59
2022-11-25T09:33:52.063Z,69.42
2022-11-25T09:36:20.545Z,69.67
2022-11-25T09:38:47.754Z,69.64
2022-11-25T09:41:52.234Z,69.40
2022-11-25T09:45:08.157Z,69.47
2022-11-25T09:48:01.398Z,69.85
2022-11-25T09:50:52.406Z,69.90
2022-11-25T09:53:57.428Z,69.79
2022-11-25T09:56:39.701Z,69.94
2022-11-25T09:59:22.225Z,69.70
2022-11-25T10:02:11.448Z,69.66
2022-11-25T10:04:47.801Z,69.92
2022-11-25T10:07:22.860Z,69.72
2022-11-25T10:09:49.647Z,70.08
2022-11-25T10:12:31.133Z,69.48
2022-11-25T10:15:05.056Z,69.38
2022-11-25T10:17:55.224Z,69.67
2022-11-25T10:20:36.996Z,69.64
2022-11-25T10:23:29.703Z,69.59
2022-11-25T10:26:03.411Z,69.56
2022-11-25T10:28:34.239Z,69.57
2022-11-25T10:31:19.641Z,69.30
2022-11-25T10:33:53.067Z,69.34
2022-11-25T10:36:40.412Z,69.50
2022-11-25T10:39:15.559Z,69.75
2022-11-25T10:42:12.617Z,69.72
2022-11-25T10:44:41.581Z,69.45
2022-11-25T10:47:26.970Z,69.69
2022-11-25T10:50:27.893Z,69.61
2022-11-25T10:53:12.093Z,69.60
2022-11-25T10:55:39.326Z,69.60
2022-11-25T10:58:30.361Z,69.76
2022-11-25T11:01:25.483Z,69.92
2022-11-25T11:04:14.894Z,69.97
2022-11-25T11:06:44.856Z,69.87
2022-11-25T11:09:40.812Z,69.84
2022-11-25T11:12:25.967Z,69.87
2022-11-25T11:15:15.326Z,69.76
2022-11-25T11:17:42.071Z,69.96
2022-11-25T11:20:08.693Z,69.81
2022-11-25T11:22:36.964Z,69.74
2022-11-25T11:25:27.633Z,69.61
2022-11-25T11:27:55.188Z,69.83
2022-11-25T11:30:26.140Z,69.83
2022-11-25T11:33:29.987Z,69.61
2022-11-25T11:36:12.974Z,69.56
2022-11-25T11:39:14.880Z,69.75
2022-11-25T11:42:28.691Z,69.79
2022-11-25T11:45:32.771Z,69.65
2022-11-25T11:48:21.188Z,69.86
2022-11-25T11:51:20.324Z,70.07
2022-11-25T11:54:18.207Z,69.77
2022-11-25T11:56:55.598Z,70.15
2022-11-25T11:59:31.468Z,69.88
2022-11-25T12:02:31.961Z,69.87
2022-11-25T12:05:10.880Z,70.10
2022-11-25T12:08:05.048Z,70.19
2022-11-25T12:10:58.243Z,69.98
2022-11-25T12:13:46.933Z,69.87
2022-11-25T12:16:30.523Z,70.04
2022-11-25T12:19:39.808Z,70.01
2022-11-25T12:22:11.433Z,69.88
2022-11-25T12:25:02.014Z,69.94
2022-11-25T12:27:38.724Z,70.00
2022-11-25T12:30:10.776Z,69.71
2022-11-25T12:33:03.745Z,69.98
2022-11-25T12:35:59.883Z,69.77
2022-11-25T12:38:38.661Z,69.79
2022-11-25T12:41:30.744Z,70.00
2022-11-25T12:44:30.622Z,69.76
2022-11-25T12:46:58.788Z,70.04
2022-11-25T12:49:48.153Z,69.86
2022-11-25T12:53:12.549Z,69.92
2022-11-25T12:55:40.946Z,69.92
2022-11-25T12:58:22.622Z,69.90
2022-11-25T13:01:32.135Z,69.82
2022-11-25T13:04:35.769Z,69.86
2022-11-25T13:07:26.149Z,69.74
2022-11-25T13:10:29.371Z,70.04
2022-11-25T13:13:20.257Z,69.50
2022-11-25T13:15:53.125Z,69.81
2022-11-25T13:18:27.366Z,70.10
2022-11-25T13:20:55.955Z,69.96
2022-11-25T13:23:26.911Z,69.83
2022-11-25T13:26:37.060Z,70.02
2022-11-25T13:29:26.909Z,70.00
2022-11-25T13:32:03.159Z,69.93
2022-11-25T13:34:35.141Z,69.98
2022-11-25T13:37:36.876Z,69.90
2022-11-25T13:40:20.089Z,69.74
2022-11-25T13:42:46.973Z,69.51
2022-11-25T13:45:44.784Z,69.71
2022-11-25T13:48:20.944Z,69.43
2022-11-25T13:51:10.770Z,69.69
2022-11-25T13:53:37.871Z,69.83
2022-11-25T13:56:30.968Z,69.47
2022-11-25T13:59:16.935Z,69.50
2022-11-25T14:01:46.760Z,69.85
2022-11-25T14:04:15.696Z,69.70
2022-11-25T14:07:00.809Z,69.81
2022-11-25T14:10:10.256Z,69.74
2022-11-25T14:13:20.238Z,69.87
2022-11-25T14:16:02.316Z,69.90
2022-11-25T14:22:00.300Z,69.84
2022-11-25T14:24:41.456Z,69.89
2022-11-25T14:27:26.497Z,69.80
2022-11-25T14:29:59.364Z,69.75
2022-11-25T14:32:53.121Z,70.03
2022-11-25T14:35:32.976Z,69.83
2022-11-25T14:38:05.179Z,69.76
2022-11-25T14:40:42.080Z,69.92
2022-11-25T14:43:20.949Z,69.68
2022-11-25T14:45:48.006Z,69.79
2022-11-25T14:48:25.898Z,69.68
2022-11-25T14:51:01.518Z,69.63
2022-11-25T14:53:30.101Z,69.86
2022-11-25T14:56:00.262Z,69.82
2022-11-25T14:58:27.475Z,69.76
2022-11-25T15:01:18.086Z,69.71
2022-11-25T15:03:48.294Z,69.90
2022-11-25T15:06:16.513Z,69.75
2022-11-25T15:08:46.551Z,69.71
2022-11-25T15:11:20.131Z,69.73
2022-11-25T15:14:03.031Z,69.78
2022-11-25T15:16:40.158Z,69.80
2022-11-25T15:19:26.040Z,69.98
2022-11-25T15:24:55.637Z,69.84
2022-11-25T15:27:28.695Z,69.70
2022-11-25T15:29:57.157Z,70.08
2022-11-25T15:32:32.339Z,69.88
2022-11-25T15:35:01.683Z,69.72
2022-11-25T15:37:29.026Z,69.79
2022-11-25T15:40:30.777Z,69.81
2022-11-25T15:43:00.432Z,69.94
2022-11-25T15:45:42.511Z,70.15
2022-11-25T15:48:27.222Z,69.79
2022-11-25T15:51:03.781Z,69.97
2022-11-25T15:53:36.767Z,70.08
2022-11-25T15:56:06.730Z,69.71
2022-11-25T15:58:33.618Z,69.77
2022-11-25T16:01:21.247Z,69.83
2022-11-25T16:03:49.471Z,69.81
2022-11-25T16:06:26.865Z,69.69
2022-11-25T16:09:02.612Z,69.63
2022-11-25T16:11:33.500Z,69.54
2022-11-25T16:14:30.551Z,69.75
2022-11-25T16:17:12.073Z,69.71
2022-11-25T16:19:44.666Z,69.67
2022-11-25T16:22:18.762Z,70.02
2022-11-25T16:25:01.922Z,69.85
2022-11-25T16:27:29.887Z,70.04
2022-11-25T16:30:06.004Z,70.22
2022-11-25T16:32:34.144Z,70.19
2022-11-25T16:35:27.408Z,70.19
2022-11-25T16:37:58.177Z,70.66
2022-11-25T16:40:27.215Z,70.26
2022-11-25T16:42:54.051Z,70.47
2022-11-25T16:45:23.937Z,70.32
2022-11-25T16:47:50.863Z,70.20
2022-11-25T16:50:19.691Z,70.39
2022-11-25T16:52:46.613Z,69.95
2022-11-25T16:55:13.673Z,70.21
2022-11-25T16:57:42.910Z,70.34
2022-11-25T17:00:16.814Z,70.22
2022-11-25T17:02:44.777Z,70.06
2022-11-25T17:05:19.189Z,70.08
2022-11-25T17:07:46.157Z,70.44
2022-11-25T17:10:13.244Z,70.38
2022-11-25T17:12:42.360Z,70.42
2022-11-25T17:15:17.148Z,70.21
2022-11-25T17:17:47.500Z,70.44
2022-11-25T17:20:17.805Z,70.16
2022-11-25T17:22:44.617Z,70.30
2022-11-25T17:25:14.638Z,70.46
2022-11-25T17:27:42.275Z,70.61
2022-11-25T17:30:23.749Z,70.68
2022-11-25T17:33:02.218Z,70.40
2022-11-25T17:35:29.077Z,70.69
2022-11-25T17:37:58.505Z,71.01
2022-11-25T17:40:25.403Z,71.22
2022-11-25T17:42:52.488Z,70.79
2022-11-25T17:45:21.567Z,71.06
2022-11-25T17:47:48.527Z,71.14
2022-11-25T17:50:22.788Z,70.94
2022-11-25T17:52:50.180Z,70.95
2022-11-25T17:55:19.483Z,71.25
2022-11-25T17:57:47.932Z,71.05
2022-11-25T18:00:19.670Z,71.22
2022-11-25T18:02:47.321Z,71.13
2022-11-25T18:05:20.283Z,70.99
2022-11-25T18:07:47.497Z,71.03
2022-11-25T18:10:17.431Z,71.01
2022-11-25T18:12:46.593Z,71.16
2022-11-25T18:15:20.699Z,71.09
2022-11-25T18:17:48.735Z,71.01
2022-11-25T18:20:26.277Z,70.97
2022-11-25T18:22:53.662Z,71.09
2022-11-25T18:25:24.915Z,71.12
2022-11-25T18:27:56.782Z,70.96
2022-11-25T18:30:28.196Z,71.20
2022-11-25T18:32:56.219Z,70.91
2022-11-25T18:35:31.091Z,71.09
2022-11-25T18:38:01.043Z,70.97
2022-11-25T18:40:29.221Z,71.49
2022-11-25T18:43:00.358Z,70.83
2022-11-25T18:45:40.268Z,71.50
2022-11-25T18:48:14.800Z,70.95
2022-11-25T18:50:43.212Z,70.97
2022-11-25T18:53:09.981Z,71.10
2022-11-25T18:55:37.284Z,70.90
2022-11-25T18:58:19.022Z,71.18
2022-11-25T19:00:50.994Z,71.21
2022-11-25T19:03:25.851Z,71.00
2022-11-25T19:05:54.303Z,70.82
2022-11-25T19:08:21.500Z,70.71
2022-11-25T19:10:48.976Z,70.99
2022-11-25T19:13:34.704Z,70.98
2022-11-25T19:16:08.643Z,70.94
2022-11-25T19:18:35.644Z,70.62
2022-11-25T19:21:02.438Z,70.93
2022-11-25T19:23:29.252Z,70.64
2022-11-25T19:26:04.807Z,70.61
2022-11-25T19:28:32.059Z,70.41
2022-11-25T19:31:04.312Z,70.31
2022-11-25T19:33:37.216Z,70.62
2022-11-25T19:36:05.998Z,70.30
2022-11-25T19:38:34.692Z,70.76
2022-11-25T19:41:01.621Z,70.69
2022-11-25T19:43:28.439Z,70.65
2022-11-25T19:45:57.308Z,70.67
2022-11-25T19:48:26.970Z,70.84
2022-11-25T19:50:59.384Z,70.71
2022-11-25T19:53:33.043Z,70.70
2022-11-25T19:56:03.933Z,70.77
2022-11-25T19:58:31.249Z,71.15
2022-11-25T20:01:02.845Z,70.89
2022-11-25T20:03:31.084Z,71.03
2022-11-25T20:05:58.492Z,70.93
2022-11-25T20:08:28.912Z,70.91
2022-11-25T20:10:57.703Z,71.15
2022-11-25T20:13:25.871Z,71.15
2022-11-25T20:15:55.209Z,71.02
2022-11-25T20:18:26.017Z,71.40
2022-11-25T20:21:02.407Z,71.24
2022-11-25T20:23:44.355Z,71.19
2022-11-25T20:26:35.407Z,71.42
2022-11-25T20:29:03.269Z,71.24
2022-11-25T20:31:30.677Z,71.61
2022-11-25T20:33:57.959Z,71.58
2022-11-25T20:36:31.624Z,71.67
2022-11-25T20:38:59.707Z,71.84
2022-11-25T20:41:28.088Z,71.47
2022-11-25T20:43:56.466Z,71.65
2022-11-25T20:46:28.924Z,71.39
2022-11-25T20:48:59.386Z,71.42
2022-11-25T20:51:26.704Z,71.63
2022-11-25T20:53:57.701Z,71.70
2022-11-25T20:56:27.334Z,71.40
2022-11-25T20:58:54.196Z,71.59
2022-11-25T21:01:21.068Z,71.49
2022-11-25T21:03:49.523Z,71.32
2022-11-25T21:06:25.678Z,71.44
2022-11-25T21:08:54.036Z,71.54
2022-11-25T21:11:22.650Z,71.52
2022-11-25T21:13:50.426Z,71.38
2022-11-25T21:16:17.523Z,71.42
2022-11-25T21:18:44.590Z,71.33
2022-11-25T21:21:31.593Z,71.45
2022-11-25T21:24:10.368Z,71.33
2022-11-25T21:26:37.155Z,71.68
2022-11-25T21:29:03.962Z,71.35
2022-11-25T21:31:30.815Z,71.57
2022-11-25T21:33:59.167Z,71.36
2022-11-25T21:36:29.955Z,71.63
2022-11-25T21:39:09.030Z,71.33
2022-11-25T21:41:48.655Z,71.46
2022-11-25T21:44:39.889Z,71.41
2022-11-25T21:47:26.340Z,71.46
2022-11-25T21:49:53.617Z,71.43
2022-11-25T21:52:20.525Z,71.37
2022-11-25T21:54:47.478Z,71.30
2022-11-25T21:57:22.132Z,71.53
2022-11-25T21:59:49.277Z,71.22
2022-11-25T22:02:19.608Z,71.50
2022-11-25T22:04:46.616Z,71.34
2022-11-25T22:07:13.762Z,71.27
2022-11-25T22:09:41.232Z,71.68
2022-11-25T22:12:27.125Z,71.29
2022-11-25T22:14:54.301Z,71.35
2022-11-25T22:17:21.121Z,71.14
2022-11-25T22:19:47.959Z,70.98
2022-11-25T22:22:16.452Z,71.00
2022-11-25T22:24:43.636Z,71.22
2022-11-25T22:27:26.104Z,71.22
2022-11-25T22:29:53.132Z,71.04
2022-11-25T22:32:20.266Z,70.86
2022-11-25T22:34:47.317Z,70.90
2022-11-25T22:37:22.986Z,70.80
2022-11-25T22:39:50.333Z,70.57
2022-11-25T22:42:30.003Z,70.69
2022-11-25T22:44:58.869Z,70.52
2022-11-25T22:47:31.990Z,70.69
2022-11-25T22:50:02.286Z,70.59
2022-11-25T22:52:35.408Z,70.51
2022-11-25T22:55:14.514Z,70.25
2022-11-25T22:57:41.388Z,70.52
2022-11-25T23:00:12.141Z,70.21
2022-11-25T23:02:38.978Z,70.29
2022-11-25T23:05:16.469Z,70.28
2022-11-25T23:07:43.641Z,70.34
2022-11-25T23:10:25.384Z,70.25
2022-11-25T23:12:52.512Z,70.01
2022-11-25T23:15:22.604Z,70.21
2022-11-25T23:17:59.261Z,70.10
2022-11-25T23:20:36.463Z,70.13
2022-11-25T23:23:14.681Z,70.05
2022-11-25T23:25:42.777Z,70.36
2022-11-25T23:28:09.840Z,70.17
2022-11-25T23:30:37.043Z,70.36
2022-11-25T23:33:09.297Z,70.29
2022-11-25T23:35:38.359Z,70.21
2022-11-25T23:38:16.857Z,70.24
2022-11-25T23:40:44.028Z,70.31
2022-11-25T23:43:15.742Z,70.57
2022-11-25T23:45:55.148Z,69.89
2022-11-25T23:48:28.305Z,70.57
2022-11-25T23:50:57.092Z,70.26
2022-11-25T23:53:32.026Z,70.41
2022-11-25T23:55:58.928Z,70.55
2022-11-25T23:58:25.892Z,70.60
